Time;durP1;ratioP1;P1;durP2;ratioP2;P2;SDS_P1;SDS_P2;PMS_P1;PMS_P2;Temp;Humidity;BMP_temperature;BMP_pressure;BME280_temperature;BME280_humidity;BME280_pressure;Samples;Min_cycle;Max_cycle;Signal;HPM_P1;HPM_P2
2022/09/07 00:02:09;;;;;;;;;0.75;0.75;;;;;22.04;58.48;100969.31;4974494;28;45316;-46
2022/09/07 00:04:34;;;;;;;;;2.00;2.00;;;;;22.04;59.12;100961.19;4974028;28;45362;-49
2022/09/07 00:07:00;;;;;;;;;4.50;2.25;;;;;22.01;59.05;100957.03;4974317;28;45378;-49
2022/09/07 00:09:25;;;;;;;;;1.50;1.50;;;;;21.89;58.80;100945.22;4989331;28;45606;-47
2022/09/07 00:11:50;;;;;;;;;3.75;2.00;;;;;21.99;58.27;100963.69;4972999;28;45375;-47
2022/09/07 00:14:16;;;;;;;;;2.25;2.00;;;;;21.96;58.52;100969.56;4973918;28;46311;-49
2022/09/07 00:16:41;;;;;;;;;3.00;2.75;;;;;21.95;58.39;100968.72;4972404;28;45365;-50
2022/09/07 00:19:06;;;;;;;;;2.50;2.00;;;;;21.95;58.45;100976.84;4974144;28;45371;-49
2022/09/07 00:21:32;;;;;;;;;2.00;2.00;;;;;21.92;59.18;100974.59;4974081;28;45386;-48
2022/09/07 00:23:57;;;;;;;;;2.50;2.50;;;;;21.89;59.19;100970.41;4973546;28;47165;-48
2022/09/07 00:26:26;;;;;;;;;4.25;2.00;;;;;21.89;59.75;100966.88;4974958;28;45311;-47
2022/09/07 00:28:52;;;;;;;;;2.00;2.00;;;;;21.88;59.71;100970.66;4976690;28;45284;-48
2022/09/07 00:31:20;;;;;;;;;5.25;5.25;;;;;21.79;60.83;100961.94;4977716;28;45515;-46
2022/09/07 00:33:47;;;;;;;;;1.00;1.00;;;;;21.81;60.90;100972.53;4976518;28;47380;-48
2022/09/07 00:36:14;;;;;;;;;3.00;3.00;;;;;21.82;59.78;100966.06;4976751;28;45304;-48
2022/09/07 00:38:39;;;;;;;;;4.20;2.00;;;;;21.80;58.90;100970.91;4976611;28;45369;-46
2022/09/07 00:41:05;;;;;;;;;6.75;3.25;;;;;21.81;60.98;100970.66;4976919;28;45496;-48
2022/09/07 00:43:40;;;;;;;;;3.50;3.50;;;;;21.82;60.82;100969.63;4976714;28;45441;-51
2022/09/07 00:46:13;;;;;;;;;5.00;2.00;;;;;21.83;60.99;100971.31;4976751;28;45214;-46
2022/09/07 00:48:47;;;;;;;;;5.00;4.00;;;;;21.85;61.24;100965.66;4976807;28;45276;-46
2022/09/07 00:51:23;;;;;;;;;4.00;4.00;;;;;21.83;62.10;100967.75;4976873;28;45471;-48
2022/09/07 00:53:54;;;;;;;;;4.00;3.00;;;;;21.80;62.37;100966.31;4976275;28;46348;-51
2022/09/07 00:56:27;;;;;;;;;4.00;4.00;;;;;21.78;62.18;100962.13;4976395;28;45334;-50
2022/09/07 00:58:54;;;;;;;;;7.60;2.80;;;;;21.74;62.89;100969.03;4976556;28;45297;-49
2022/09/07 01:01:20;;;;;;;;;3.50;2.75;;;;;21.68;62.66;100970.72;4976972;28;45413;-46
2022/09/07 01:03:50;;;;;;;;;3.00;2.25;;;;;21.62;61.30;100963.47;4976783;28;45372;-52
2022/09/07 01:06:22;;;;;;;;;4.40;3.80;;;;;21.59;62.07;100982.84;4976488;28;45304;-49
2022/09/07 01:08:50;;;;;;;;;4.00;3.00;;;;;21.52;62.32;100969.31;4976728;28;45441;-49
2022/09/07 01:11:20;;;;;;;;;5.00;5.00;;;;;21.50;61.82;100962.47;4976624;28;45665;-48
2022/09/07 01:13:49;;;;;;;;;4.00;3.00;;;;;21.47;59.77;100965.59;4976466;28;45339;-47
2022/09/07 01:16:40;;;;;;;;;4.80;3.60;;;;;21.44;61.67;100966.84;4976331;28;45361;-47
2022/09/07 01:19:42;;;;;;;;;4.50;3.00;;;;;21.46;62.06;100967.47;4976308;28;45390;-48
2022/09/07 01:22:33;;;;;;;;;6.00;3.00;;;;;21.52;61.86;100972.03;4976402;28;45224;-52
2022/09/07 01:25:12;;;;;;;;;5.25;3.25;;;;;21.55;61.98;100974.31;4976026;28;46388;-50
2022/09/07 01:27:52;;;;;;;;;5.80;2.60;;;;;21.53;62.38;100968.28;4975983;28;45425;-48
2022/09/07 01:30:20;;;;;;;;;2.25;2.25;;;;;21.52;60.98;100961.19;4976133;28;45327;-50
2022/09/07 01:33:09;;;;;;;;;3.75;3.75;;;;;21.49;61.30;100960.78;4976429;28;45435;-46
2022/09/07 01:35:43;;;;;;;;;3.00;3.00;;;;;21.46;61.48;100953.94;4976237;28;45292;-48
2022/09/07 01:38:08;;;;;;;;;2.20;2.20;;;;;21.43;62.28;100959.78;4975869;28;45449;-48
2022/09/07 01:40:42;;;;;;;;;6.75;3.00;;;;;21.38;61.17;100955.00;4976035;28;45311;-49
2022/09/07 01:43:28;;;;;;;;;3.00;3.00;;;;;21.36;61.91;100953.53;4976461;28;45437;-50
2022/09/07 01:45:57;;;;;;;;;4.50;3.00;;;;;21.35;62.75;100957.31;4975962;28;47820;-47
2022/09/07 01:48:25;;;;;;;;;4.60;3.40;;;;;21.33;62.26;100949.41;4975984;28;45343;-50
2022/09/07 01:50:57;;;;;;;;;2.00;2.00;;;;;21.32;61.44;100957.72;4976002;28;45394;-48
2022/09/07 01:53:33;;;;;;;;;3.50;3.50;;;;;21.30;60.89;100952.50;4976244;28;45418;-49
2022/09/07 01:56:08;;;;;;;;;7.50;2.00;;;;;21.27;61.76;100952.91;4975746;28;46357;-46
2022/09/07 01:58:37;;;;;;;;;4.00;4.00;;;;;21.25;62.22;100949.59;4975808;28;45391;-47
2022/09/07 02:01:19;;;;;;;;;3.50;3.50;;;;;21.26;61.36;100953.13;4975839;28;45293;-50
2022/09/07 02:03:54;;;;;;;;;4.75;3.00;;;;;21.19;60.67;100942.31;4975929;28;45394;-49
2022/09/07 02:06:27;;;;;;;;;6.75;3.75;;;;;21.16;61.21;100942.75;4975479;28;46089;-47
2022/09/07 02:08:59;;;;;;;;;3.20;3.00;;;;;21.15;60.96;100951.91;4975560;28;45336;-48
2022/09/07 02:11:32;;;;;;;;;4.25;4.25;;;;;21.11;60.80;100946.09;4975632;28;45437;-49
2022/09/07 02:14:03;;;;;;;;;3.50;2.00;;;;;21.14;61.44;100947.53;4975857;28;45243;-48
2022/09/07 02:16:30;;;;;;;;;3.00;3.00;;;;;21.12;61.04;100944.22;4975437;28;46375;-51
2022/09/07 02:19:02;;;;;;;;;2.80;2.80;;;;;21.11;59.95;100946.09;4975345;28;45404;-50
2022/09/07 02:21:35;;;;;;;;;2.00;2.00;;;;;21.08;60.25;100940.28;4975692;28;45402;-48
2022/09/07 02:24:07;;;;;;;;;4.50;2.25;;;;;21.05;60.49;100944.22;4975748;28;45316;-47
2022/09/07 02:26:36;;;;;;;;;4.25;3.00;;;;;21.03;60.52;100937.38;4974563;28;45312;-49
2022/09/07 02:29:02;;;;;;;;;1.80;1.80;;;;;21.02;60.32;100941.94;4975358;28;45374;-49
2022/09/07 02:31:27;;;;;;;;;2.00;2.00;;;;;21.02;60.52;100939.22;4975567;28;45485;-47
2022/09/07 02:33:53;;;;;;;;;2.00;2.00;;;;;21.02;60.42;100941.09;4975738;28;45283;-48
2022/09/07 02:36:23;;;;;;;;;2.75;1.00;;;;;21.00;60.29;100935.09;4975277;28;46102;-47
2022/09/07 02:38:49;;;;;;;;;3.40;2.00;;;;;20.97;60.07;100927.38;4975211;28;45331;-45
2022/09/07 02:41:34;;;;;;;;;3.00;2.25;;;;;20.96;59.87;100945.50;4975341;28;45236;-48
2022/09/07 02:44:05;;;;;;;;;1.75;1.75;;;;;20.91;60.05;100929.06;4975534;28;45340;-47
2022/09/07 02:46:56;;;;;;;;;3.00;3.00;;;;;20.93;60.07;100941.31;4975236;28;46789;-45
2022/09/07 02:49:48;;;;;;;;;5.00;2.00;;;;;20.92;59.74;100946.94;4974742;28;45485;-48
2022/09/07 02:52:13;;;;;;;;;1.60;1.60;;;;;20.91;58.79;100939.88;4975595;28;45308;-45
2022/09/07 02:54:48;;;;;;;;;1.25;1.25;;;;;20.86;59.70;100937.81;4975420;28;45498;-48
2022/09/07 02:57:21;;;;;;;;;1.25;1.00;;;;;20.84;60.12;100939.06;4975046;28;46187;-46
2022/09/07 03:00:10;;;;;;;;;2.20;2.20;;;;;20.80;59.64;100937.81;4975000;28;45328;-46
2022/09/07 03:02:57;;;;;;;;;1.25;1.25;;;;;20.76;59.23;100933.84;4975099;28;45863;-46
2022/09/07 03:05:41;;;;;;;;;1.75;1.00;;;;;20.72;59.42;100941.56;4975353;28;45438;-47
2022/09/07 03:08:22;;;;;;;;;4.00;1.00;;;;;20.70;59.67;100953.63;4974652;28;46067;-48
2022/09/07 03:10:48;;;;;;;;;1.50;1.50;;;;;20.68;59.81;100941.13;4974616;28;45311;-47
2022/09/07 03:13:26;;;;;;;;;2.00;1.50;;;;;20.72;59.77;100946.13;4975046;28;45432;-49
2022/09/07 03:15:52;;;;;;;;;3.50;2.00;;;;;20.73;59.91;100936.97;4975092;28;45403;-47
2022/09/07 03:18:17;;;;;;;;;2.50;2.50;;;;;20.73;60.01;100942.38;4974740;28;47009;-46
2022/09/07 03:20:43;;;;;;;;;3.00;2.00;;;;;20.70;59.68;100954.47;4974699;28;45435;-47
2022/09/07 03:23:08;;;;;;;;;1.50;1.50;;;;;20.70;59.59;100953.63;4974796;28;45788;-48
2022/09/07 03:25:33;;;;;;;;;5.25;1.75;;;;;20.69;58.95;100952.81;4974876;28;45344;-48
2022/09/07 03:27:59;;;;;;;;;2.00;1.00;;;;;20.64;59.35;100957.97;4974716;28;47139;-48
2022/09/07 03:30:24;;;;;;;;;2.00;1.00;;;;;20.60;59.29;100960.25;4974851;28;45379;-47
2022/09/07 03:32:50;;;;;;;;;2.25;2.00;;;;;20.48;59.12;100947.53;4974818;28;45442;-48
2022/09/07 03:35:15;;;;;;;;;3.00;1.50;;;;;20.51;59.29;100956.09;4974725;28;45290;-47
2022/09/07 03:37:41;;;;;;;;;2.25;1.00;;;;;20.46;60.08;100953.16;4974446;28;47113;-47
2022/09/07 03:40:09;;;;;;;;;1.00;1.00;;;;;20.47;59.34;100964.78;4974580;28;45296;-46
2022/09/07 03:42:35;;;;;;;;;1.75;1.75;;;;;20.43;59.66;100959.78;4974548;28;45340;-50
2022/09/07 03:45:00;;;;;;;;;1.75;1.75;;;;;20.42;60.00;100974.34;4974675;28;45173;-49
2022/09/07 03:47:26;;;;;;;;;4.25;1.75;;;;;20.37;59.86;100971.44;4974080;28;46077;-46
2022/09/07 03:49:51;;;;;;;;;1.00;1.00;;;;;20.34;59.72;100965.63;4974498;28;45340;-47
2022/09/07 03:52:17;;;;;;;;;1.75;1.75;;;;;20.30;60.47;100964.34;4974580;28;45449;-47
2022/09/07 03:54:42;;;;;;;;;4.00;2.50;;;;;20.27;60.28;100973.72;4974749;28;45363;-47
2022/09/07 03:57:08;;;;;;;;;2.50;1.00;;;;;20.24;60.16;100967.88;4974002;28;46174;-49
2022/09/07 03:59:34;;;;;;;;;2.00;2.00;;;;;20.18;60.43;100978.47;4974248;28;45383;-48
2022/09/07 04:02:00;;;;;;;;;4.50;2.75;;;;;20.14;60.03;100977.22;4974632;28;45324;-47
2022/09/07 04:04:25;;;;;;;;;5.50;4.00;;;;;20.14;60.29;100976.38;4977372;28;45317;-45
2022/09/07 04:06:51;;;;;;;;;4.00;4.00;;;;;20.11;60.29;100980.31;4976926;28;45577;-47
2022/09/07 04:09:16;;;;;;;;;4.25;4.25;;;;;20.08;60.44;100988.00;4976929;28;45393;-46
2022/09/07 04:11:41;;;;;;;;;6.25;5.00;;;;;20.05;60.83;100989.22;4977200;28;45216;-49
2022/09/07 04:14:08;;;;;;;;;8.25;5.50;;;;;20.00;60.84;100991.72;4977242;28;45351;-46
2022/09/07 04:16:34;;;;;;;;;4.00;4.00;;;;;20.01;60.26;100998.75;4976875;28;45243;-46
2022/09/07 04:18:59;;;;;;;;;7.50;4.25;;;;;20.01;60.78;101001.47;4976989;28;45304;-49
2022/09/07 04:21:30;;;;;;;;;6.00;4.00;;;;;20.04;60.32;101011.88;4977189;28;45297;-48
2022/09/07 04:23:56;;;;;;;;;3.25;3.25;;;;;20.00;60.92;100999.81;4977191;28;45307;-48
2022/09/07 04:26:28;;;;;;;;;4.00;2.00;;;;;19.96;60.79;101001.25;4976733;28;46321;-48
2022/09/07 04:28:54;;;;;;;;;4.00;3.00;;;;;19.87;60.79;100989.78;4976890;28;45372;-48
2022/09/07 04:31:20;;;;;;;;;1.75;1.50;;;;;19.97;61.03;101008.31;4976757;28;45285;-50
2022/09/07 04:33:47;;;;;;;;;3.00;2.00;;;;;19.96;60.68;101003.94;4992100;28;45433;-48
2022/09/07 04:36:14;;;;;;;;;2.00;2.00;;;;;19.97;60.70;100999.38;4976715;28;45275;-49
2022/09/07 04:38:39;;;;;;;;;3.75;3.00;;;;;19.99;60.11;100997.31;4976821;28;45746;-47
2022/09/07 04:41:08;;;;;;;;;2.00;1.25;;;;;20.00;60.70;100997.09;4976715;28;45240;-49
2022/09/07 04:43:35;;;;;;;;;1.00;1.00;;;;;20.04;60.73;101002.94;4977008;28;45236;-49
2022/09/07 04:46:02;;;;;;;;;3.00;2.50;;;;;20.08;60.59;100999.63;4976789;28;46164;-52
2022/09/07 04:48:27;;;;;;;;;3.00;1.50;;;;;20.12;60.52;101011.69;4976430;28;45326;-50
2022/09/07 04:50:53;;;;;;;;;3.00;1.75;;;;;20.14;60.14;100995.28;4976928;28;45442;-49
2022/09/07 04:53:18;;;;;;;;;3.00;2.00;;;;;20.14;60.57;101008.78;4976797;28;45231;-49
2022/09/07 04:55:44;;;;;;;;;1.50;1.50;;;;;20.13;59.96;101007.13;4976391;28;45188;-48
2022/09/07 04:58:09;;;;;;;;;4.50;2.00;;;;;20.10;60.62;101002.13;4976253;28;45469;-49
2022/09/07 05:00:36;;;;;;;;;0.75;0.75;;;;;20.08;60.57;101007.72;4976454;28;45364;-50
2022/09/07 05:03:01;;;;;;;;;3.00;3.00;;;;;20.06;60.34;101004.41;4976623;28;45324;-46
2022/09/07 05:05:27;;;;;;;;;1.00;1.00;;;;;20.06;60.32;101009.00;4976322;28;46650;-47
2022/09/07 05:07:52;;;;;;;;;4.00;2.00;;;;;20.06;60.55;101009.81;4976254;28;45272;-50
2022/09/07 05:10:17;;;;;;;;;6.25;2.00;;;;;20.06;61.13;101012.53;4976660;28;45366;-48
2022/09/07 05:12:43;;;;;;;;;4.50;2.00;;;;;20.06;60.70;101009.81;4975947;28;45418;-47
2022/09/07 05:15:08;;;;;;;;;2.50;1.75;;;;;20.05;61.24;101004.59;4975799;28;46057;-48
2022/09/07 05:17:34;;;;;;;;;2.00;1.25;;;;;19.93;60.84;100996.25;4976508;28;45374;-45
2022/09/07 05:19:59;;;;;;;;;0.00;0.00;;;;;20.02;60.46;101011.25;4976492;28;45795;-47
2022/09/07 05:22:25;;;;;;;;;4.50;2.00;;;;;20.07;61.06;101016.03;4976496;28;45350;-45
2022/09/07 05:24:50;;;;;;;;;1.00;1.00;;;;;20.06;61.38;101020.63;4976045;28;46026;-49
2022/09/07 05:27:16;;;;;;;;;2.50;1.75;;;;;20.01;61.04;101009.56;4975902;28;45389;-49
2022/09/07 05:29:41;;;;;;;;;5.00;3.25;;;;;20.11;60.29;101023.53;4976201;28;45406;-47
2022/09/07 05:32:07;;;;;;;;;3.00;3.00;;;;;20.15;61.01;101022.09;4976293;28;45422;-50
2022/09/07 05:34:32;;;;;;;;;5.50;2.75;;;;;20.18;60.16;101029.81;4975339;28;45331;-48
2022/09/07 05:36:58;;;;;;;;;4.25;2.00;;;;;20.14;60.45;101031.25;4975873;28;45223;-55
2022/09/07 05:39:23;;;;;;;;;2.75;2.75;;;;;20.16;61.18;101037.25;4975884;28;45242;-54
2022/09/07 05:41:49;;;;;;;;;8.50;1.75;;;;;20.22;60.81;101032.06;4976177;28;45307;-47
2022/09/07 05:44:14;;;;;;;;;4.00;2.00;;;;;20.21;60.53;101022.31;4975906;28;45470;-51
2022/09/07 05:46:39;;;;;;;;;2.25;2.25;;;;;20.17;60.91;101013.78;4975939;28;45328;-50
2022/09/07 05:49:06;;;;;;;;;2.00;2.00;;;;;20.31;60.84;101020.03;4975881;28;45386;-50
2022/09/07 05:51:32;;;;;;;;;2.00;2.00;;;;;20.35;60.17;101018.59;4976055;28;45396;-50
2022/09/07 05:53:58;;;;;;;;;2.50;2.00;;;;;20.42;61.21;101014.88;4975829;28;46099;-50
2022/09/07 05:56:24;;;;;;;;;3.25;2.25;;;;;20.53;59.63;101018.91;4975875;28;45347;-51
2022/09/07 05:58:49;;;;;;;;;6.50;3.25;;;;;20.58;60.20;101010.16;4975656;28;45411;-53
2022/09/07 06:01:15;;;;;;;;;4.75;3.25;;;;;20.52;59.81;100998.31;4975890;28;45272;-51
2022/09/07 06:03:41;;;;;;;;;2.00;2.00;;;;;20.64;59.59;101020.16;4975374;28;46310;-47
2022/09/07 06:06:09;;;;;;;;;2.00;2.00;;;;;20.61;59.45;101028.69;4975714;28;45226;-51
2022/09/07 06:08:38;;;;;;;;;3.25;2.00;;;;;20.54;60.05;101025.13;4975782;28;45235;-52
2022/09/07 06:11:15;;;;;;;;;2.75;1.50;;;;;20.61;59.90;101031.38;4975988;28;45343;-53
2022/09/07 06:13:41;;;;;;;;;4.00;3.75;;;;;20.49;60.02;101014.94;4975335;28;45904;-46
2022/09/07 06:16:07;;;;;;;;;4.50;3.00;;;;;20.71;60.24;101031.81;4975631;28;45230;-56
2022/09/07 06:18:38;;;;;;;;;2.00;2.00;;;;;20.74;59.67;101027.88;4975710;28;45361;-52
2022/09/07 06:21:09;;;;;;;;;3.75;2.25;;;;;20.68;59.50;101026.81;4975746;28;45353;-47
2022/09/07 06:23:36;;;;;;;;;3.75;3.00;;;;;20.61;60.04;101031.38;4975289;28;47260;-49
2022/09/07 06:26:02;;;;;;;;;4.50;4.50;;;;;20.58;60.24;101032.63;4974401;28;45376;-50
2022/09/07 06:28:44;;;;;;;;;2.00;2.00;;;;;20.52;60.45;101030.75;4975441;28;45315;-46
2022/09/07 06:31:12;;;;;;;;;3.50;3.00;;;;;20.53;60.67;101032.41;4975669;28;45343;-48
2022/09/07 06:33:38;;;;;;;;;3.75;3.00;;;;;20.55;59.97;101032.19;4975199;28;45364;-45
2022/09/07 06:36:06;;;;;;;;;5.25;3.00;;;;;20.51;60.58;101036.34;4975308;28;45387;-47
2022/09/07 06:38:35;;;;;;;;;6.00;2.00;;;;;20.59;60.54;101039.69;4975142;28;45383;-49
2022/09/07 06:41:02;;;;;;;;;3.75;3.75;;;;;20.68;60.11;101041.16;4975485;28;45445;-49
2022/09/07 06:43:28;;;;;;;;;4.50;3.00;;;;;20.70;60.33;101040.13;4989987;28;46169;-48
2022/09/07 06:45:53;;;;;;;;;4.00;2.25;;;;;20.73;60.16;101028.88;4975208;28;45472;-49
2022/09/07 06:48:19;;;;;;;;;6.00;3.00;;;;;20.74;60.05;101030.56;4975493;28;45321;-49
2022/09/07 06:50:57;;;;;;;;;4.25;3.00;;;;;20.76;60.17;101025.78;4975401;28;45406;-50
2022/09/07 06:53:24;;;;;;;;;5.50;2.50;;;;;20.79;60.51;101034.31;4975043;28;46219;-49
2022/09/07 06:55:50;;;;;;;;;4.25;3.00;;;;;20.83;59.70;101040.16;4976191;28;45406;-48
2022/09/07 06:58:15;;;;;;;;;4.00;3.00;;;;;20.97;59.03;101040.97;4975142;28;45459;-48
2022/09/07 07:00:41;;;;;;;;;7.25;6.00;;;;;21.03;59.19;101043.69;4975156;28;45265;-47
2022/09/07 07:03:06;;;;;;;;;6.00;3.25;;;;;21.23;59.43;101037.41;4974979;28;46118;-47
2022/09/07 07:05:31;;;;;;;;;5.25;2.50;;;;;21.35;58.45;101039.31;4975054;28;45482;-46
2022/09/07 07:07:57;;;;;;;;;4.50;2.00;;;;;21.29;58.49;101009.53;4975175;28;45371;-49
2022/09/07 07:10:23;;;;;;;;;3.75;3.25;;;;;21.56;58.10;101007.63;4975144;28;45542;-47
2022/09/07 07:12:49;;;;;;;;;5.75;4.00;;;;;21.80;57.44;100997.97;4974761;28;45994;-52
2022/09/07 07:15:14;;;;;;;;;2.25;2.00;;;;;22.11;56.86;101014.28;4974940;28;45402;-49
2022/09/07 07:17:39;;;;;;;;;3.50;3.00;;;;;22.34;56.61;101011.06;4975129;28;45374;-49
2022/09/07 07:20:06;;;;;;;;;5.50;3.00;;;;;22.38;56.28;101016.91;4975103;28;45496;-47
2022/09/07 07:22:31;;;;;;;;;6.20;2.20;;;;;22.34;56.51;101021.09;4974714;28;45318;-56
2022/09/07 07:24:56;;;;;;;;;5.50;3.75;;;;;22.39;56.57;101019.38;4974693;28;45407;-50
2022/09/07 07:27:22;;;;;;;;;5.25;4.00;;;;;22.47;56.24;101023.72;4974902;28;45392;-51
2022/09/07 07:29:47;;;;;;;;;3.25;3.25;;;;;22.45;55.98;101028.50;4974840;28;45347;-52
2022/09/07 07:32:12;;;;;;;;;3.25;2.50;;;;;22.47;55.73;101015.56;4974645;28;45403;-47
2022/09/07 07:34:38;;;;;;;;;4.75;3.00;;;;;22.98;55.12;101019.19;4974477;28;45355;-48
2022/09/07 07:37:03;;;;;;;;;4.75;4.00;;;;;23.13;54.44;101011.53;4974487;28;45215;-49
2022/09/07 07:39:28;;;;;;;;;7.00;4.00;;;;;23.02;54.58;101013.09;4974701;28;45245;-47
2022/09/07 07:41:54;;;;;;;;;4.50;3.00;;;;;23.11;54.30;101008.22;4974335;28;45427;-48
2022/09/07 07:44:19;;;;;;;;;7.00;1.75;;;;;23.76;53.15;100991.47;4974375;28;45387;-48
2022/09/07 07:46:49;;;;;;;;;9.25;4.25;;;;;24.02;52.14;101010.16;4973612;28;45360;-47
2022/09/07 07:49:15;;;;;;;;;4.60;2.80;;;;;23.77;52.80;101012.16;4975002;28;45332;-50
2022/09/07 07:51:40;;;;;;;;;5.00;3.50;;;;;23.54;53.39;101020.94;4974171;28;45400;-48
2022/09/07 07:54:06;;;;;;;;;5.00;2.75;;;;;23.39;53.46;101013.16;4973943;28;45395;-47
2022/09/07 07:56:32;;;;;;;;;5.00;3.50;;;;;23.27;53.75;101012.25;4974019;28;45244;-46
2022/09/07 07:58:57;;;;;;;;;3.75;2.75;;;;;23.21;53.85;101007.69;4973810;28;45192;-49
2022/09/07 08:01:23;;;;;;;;;5.75;3.50;;;;;23.00;54.37;101006.22;4973910;28;45760;-50
2022/09/07 08:03:49;;;;;;;;;5.75;3.50;;;;;22.82;54.82;101001.56;4973894;28;45338;-50
2022/09/07 08:06:17;;;;;;;;;3.00;3.00;;;;;22.80;55.33;100999.06;4973996;28;45446;-51
2022/09/07 08:08:44;;;;;;;;;4.75;4.50;;;;;22.89;54.79;101005.88;5052343;28;45569;-51
2022/09/07 08:11:12;;;;;;;;;5.60;4.60;;;;;22.95;54.83;100990.63;5076341;27;46156;-46
2022/09/07 08:13:41;;;;;;;;;4.00;3.00;;;;;23.24;53.75;100980.94;5076169;28;45298;-49
2022/09/07 08:16:07;;;;;;;;;6.60;6.00;;;;;24.15;52.36;100992.84;5076378;27;45406;-50
2022/09/07 08:18:33;;;;;;;;;6.25;4.75;;;;;24.83;50.64;100991.63;5076728;27;45442;-51
2022/09/07 08:21:01;;;;;;;;;7.60;4.60;;;;;24.88;50.29;100995.28;5075116;27;46354;-51
2022/09/07 08:23:27;;;;;;;;;7.40;5.00;;;;;24.54;51.05;101001.50;5076208;27;45287;-50
2022/09/07 08:25:53;;;;;;;;;7.00;4.00;;;;;24.25;51.76;100984.97;5076440;27;45404;-49
2022/09/07 08:28:22;;;;;;;;;5.60;4.00;;;;;24.16;52.33;100997.22;5075127;27;45474;-47
2022/09/07 08:30:48;;;;;;;;;6.80;4.60;;;;;24.19;51.93;100995.91;5076417;27;46514;-48
2022/09/07 08:33:14;;;;;;;;;7.00;3.50;;;;;25.12;51.29;100988.00;5076150;27;45374;-57
2022/09/07 08:35:39;;;;;;;;;5.25;5.00;;;;;26.36;47.54;100989.47;5075922;27;45313;-55
2022/09/07 08:38:05;;;;;;;;;4.00;2.25;;;;;27.05;47.53;101001.03;5074712;28;45902;-56
2022/09/07 08:40:34;;;;;;;;;3.25;2.75;;;;;27.60;45.38;100994.72;5075815;27;45751;-47
2022/09/07 08:43:05;;;;;;;;;5.60;2.40;;;;;27.78;45.15;100990.03;5076217;27;45418;-49
2022/09/07 08:45:42;;;;;;;;;1.00;1.00;;;;;27.55;46.57;101002.84;5076024;27;45520;-58
2022/09/07 08:48:13;;;;;;;;;5.80;2.00;;;;;27.60;45.32;101005.66;5076985;27;45343;-49
2022/09/07 08:50:51;;;;;;;;;3.00;3.00;;;;;27.35;46.16;100991.66;5079501;27;47061;-48
2022/09/07 08:53:20;;;;;;;;;2.80;2.60;;;;;27.14;46.11;100997.88;5079684;27;45349;-48
2022/09/07 08:56:09;;;;;;;;;4.60;3.20;;;;;26.61;46.63;101010.94;5079458;27;45265;-49
2022/09/07 08:58:50;;;;;;;;;8.40;3.80;;;;;26.57;47.47;101013.31;5079408;27;45464;-56
2022/09/07 09:01:16;;;;;;;;;2.20;1.00;;;;;26.66;46.62;101015.66;5079238;27;46071;-49
2022/09/07 09:03:42;;;;;;;;;7.80;3.00;;;;;26.51;47.48;101005.31;5079420;27;45415;-50
2022/09/07 09:06:19;;;;;;;;;4.50;2.75;;;;;26.76;46.58;100985.81;5079579;27;45407;-52
2022/09/07 09:09:05;;;;;;;;;4.60;3.20;;;;;26.69;46.92;100985.16;5079488;27;45354;-50
2022/09/07 09:11:49;;;;;;;;;3.00;3.00;;;;;27.16;46.79;100985.63;5077756;27;46323;-50
2022/09/07 09:14:44;;;;;;;;;4.80;3.40;;;;;27.45;45.77;100977.28;5078876;27;45371;-54
2022/09/07 09:17:45;;;;;;;;;7.60;4.80;;;;;27.90;44.66;100968.88;5079187;27;45564;-55
2022/09/07 09:20:17;;;;;;;;;4.40;3.00;;;;;28.32;44.58;100970.94;5068653;28;46115;-48
2022/09/07 09:22:43;;;;;;;;;5.00;2.80;;;;;28.86;43.10;100981.78;5079000;27;46985;-52
2022/09/07 09:25:11;;;;;;;;;6.00;4.00;;;;;29.11;41.73;100970.22;5078853;27;45383;-50
2022/09/07 09:27:36;;;;;;;;;7.00;2.20;;;;;28.71;43.24;100978.97;5079127;27;45465;-49
2022/09/07 09:30:17;;;;;;;;;3.50;2.00;;;;;28.14;43.71;100971.28;5078923;27;45165;-48
2022/09/07 09:32:45;;;;;;;;;3.80;3.00;;;;;28.02;43.47;100977.75;5078777;27;46880;-48
2022/09/07 09:35:14;;;;;;;;;0.80;0.80;;;;;27.87;43.75;100977.56;5079144;28;45238;-49
2022/09/07 09:37:41;;;;;;;;;3.60;2.40;;;;;28.63;42.85;100984.91;5078953;27;45338;-49
2022/09/07 09:40:22;;;;;;;;;4.00;4.00;;;;;29.07;42.13;100985.53;5078998;27;45439;-48
2022/09/07 09:42:58;;;;;;;;;4.20;3.80;;;;;29.60;40.91;100974.63;5078841;27;46299;-50
2022/09/07 09:45:27;;;;;;;;;3.80;2.60;;;;;30.22;39.77;100971.00;5078799;27;45460;-51
2022/09/07 09:47:53;;;;;;;;;3.40;2.00;;;;;31.73;37.85;100968.31;5078480;27;45371;-51
2022/09/07 09:50:37;;;;;;;;;3.00;1.80;;;;;33.10;34.72;100951.88;5079036;27;45515;-52
2022/09/07 09:53:04;;;;;;;;;4.40;2.00;;;;;33.12;35.64;100954.34;5078541;27;46143;-50
2022/09/07 09:55:33;;;;;;;;;4.80;2.60;;;;;32.41;35.55;100940.13;5078527;27;45223;-51
2022/09/07 09:58:06;;;;;;;;;6.80;2.80;;;;;31.54;37.39;100953.53;5078740;27;45293;-50
2022/09/07 10:00:33;;;;;;;;;2.00;2.00;;;;;30.58;37.84;100960.84;5078606;27;45188;-50
2022/09/07 10:03:13;;;;;;;;;3.40;2.20;;;;;29.78;39.15;100947.53;5078234;27;47172;-51
2022/09/07 10:05:44;;;;;;;;;7.20;3.80;;;;;28.97;39.76;100958.91;5078382;27;45351;-48
2022/09/07 10:08:24;;;;;;;;;5.20;2.80;;;;;28.28;41.80;100956.94;5077942;27;45412;-47
2022/09/07 10:10:59;;;;;;;;;4.80;3.00;;;;;27.64;42.31;100934.88;5078627;27;45317;-47
2022/09/07 10:13:34;;;;;;;;;3.20;2.80;;;;;27.27;43.11;100946.47;5078169;28;46113;-47
2022/09/07 10:16:05;;;;;;;;;3.60;3.60;;;;;26.94;43.84;100954.69;5077896;27;45306;-46
2022/09/07 10:18:38;;;;;;;;;4.20;2.20;;;;;26.79;44.43;100953.38;5078466;27;45342;-47
2022/09/07 10:21:22;;;;;;;;;2.80;2.40;;;;;26.57;44.73;100942.38;5078763;27;45442;-48
2022/09/07 10:24:11;;;;;;;;;8.00;4.60;;;;;26.31;45.43;100945.75;5078094;27;46090;-50
2022/09/07 10:26:38;;;;;;;;;4.00;3.00;;;;;26.22;45.45;100939.03;5078306;27;45287;-51
2022/09/07 10:29:21;;;;;;;;;5.40;3.00;;;;;26.15;45.78;100941.91;5078086;27;45177;-50
2022/09/07 10:32:19;;;;;;;;;4.80;3.80;;;;;25.96;46.29;100952.19;5078213;27;45394;-47
2022/09/07 10:35:02;;;;;;;;;7.00;4.20;;;;;25.69;46.35;100945.63;5077596;27;45373;-47
2022/09/07 10:37:46;;;;;;;;;4.20;2.00;;;;;25.58;46.64;100945.44;5077767;28;45472;-49
2022/09/07 10:40:32;;;;;;;;;5.80;5.60;;;;;25.58;47.69;100947.34;5077618;27;45525;-46
2022/09/07 10:43:05;;;;;;;;;4.80;3.60;;;;;25.59;46.81;100938.91;5077994;27;45533;-50
2022/09/07 10:45:44;;;;;;;;;7.80;2.40;;;;;25.51;46.84;100938.47;5077198;27;45386;-50
2022/09/07 10:48:26;;;;;;;;;4.60;3.40;;;;;25.23;47.63;100931.88;5077846;28;45362;-49
2022/09/07 10:50:57;;;;;;;;;7.00;4.80;;;;;25.07;48.10;100943.47;5078062;27;45470;-49
2022/09/07 10:53:41;;;;;;;;;3.80;3.60;;;;;25.07;48.99;100941.59;5078054;27;45535;-48
2022/09/07 10:56:24;;;;;;;;;7.60;5.40;;;;;25.04;49.21;100941.22;5077228;27;45253;-50
2022/09/07 10:59:05;;;;;;;;;4.60;3.00;;;;;24.93;49.25;100945.59;5077394;27;45243;-48
2022/09/07 11:01:36;;;;;;;;;5.00;5.00;;;;;24.76;49.50;100934.59;5076053;28;45720;-49
2022/09/07 11:04:15;;;;;;;;;3.80;3.60;;;;;24.61;49.53;100936.97;5077821;27;45320;-53
2022/09/07 11:06:44;;;;;;;;;4.60;3.60;;;;;24.62;50.59;100944.06;5077473;27;45281;-50
2022/09/07 11:09:47;;;;;;;;;4.00;2.80;;;;;24.66;49.98;100936.25;5077391;27;45177;-49
2022/09/07 11:12:32;;;;;;;;;7.60;4.00;;;;;25.00;49.07;100935.44;5077033;27;45366;-47
2022/09/07 11:15:20;;;;;;;;;2.80;2.80;;;;;25.02;48.74;100922.41;5077620;27;45358;-50
2022/09/07 11:17:51;;;;;;;;;3.60;2.40;;;;;25.20;49.12;100915.19;5077319;27;46479;-50
2022/09/07 11:20:28;;;;;;;;;2.00;2.00;;;;;25.27;48.78;100929.50;5077115;27;45395;-49
2022/09/07 11:22:56;;;;;;;;;2.00;0.80;;;;;25.20;47.78;100931.53;5077589;27;45432;-47
2022/09/07 11:25:51;;;;;;;;;4.80;3.00;;;;;25.18;48.32;100922.78;5077724;27;45569;-50
2022/09/07 11:28:21;;;;;;;;;4.80;1.60;;;;;25.16;47.71;100908.56;5077216;27;46317;-50
2022/09/07 11:30:57;;;;;;;;;2.20;2.00;;;;;25.19;47.55;100916.25;5076864;27;45465;-51
2022/09/07 11:34:09;;;;;;;;;2.00;2.00;;;;;25.28;46.72;100922.97;5077384;27;45517;-49
2022/09/07 11:36:45;;;;;;;;;3.20;2.80;;;;;25.19;46.06;100922.53;5077291;27;45527;-48
2022/09/07 11:39:18;;;;;;;;;4.20;4.00;;;;;24.99;46.35;100932.94;5076690;27;46341;-50
2022/09/07 11:41:55;;;;;;;;;2.00;1.40;;;;;24.68;45.62;100910.47;5077245;27;45477;-47